sensor_id;sensor_type;location;lat;lon;timestamp;temperature;humidity
46898;DHT22;32646;50.958;6.258;2023-01-09T00:00:49;7.10;99.90
46898;DHT22;32646;50.958;6.258;2023-01-09T00:03:18;7.00;99.90
46898;DHT22;32646;50.958;6.258;2023-01-09T00:05:45;7.00;99.90
46898;DHT22;32646;50.958;6.258;2023-01-09T00:08:12;7.00;99.90
46898;DHT22;32646;50.958;6.258;2023-01-09T00:10:38;7.00;99.90
46898;DHT22;32646;50.958;6.258;2023-01-09T00:13:05;7.00;99.90
46898;DHT22;32646;50.958;6.258;2023-01-09T00:15:32;7.00;99.90
46898;DHT22;32646;50.958;6.258;2023-01-09T00:17:58;7.00;99.90
46898;DHT22;32646;50.958;6.258;2023-01-09T00:20:25;6.90;99.90
46898;DHT22;32646;50.958;6.258;2023-01-09T00:22:51;6.90;99.90
46898;DHT22;32646;50.958;6.258;2023-01-09T00:25:18;6.90;99.90
46898;DHT22;32646;50.958;6.258;2023-01-09T00:27:44;6.90;99.90
46898;DHT22;32646;50.958;6.258;2023-01-09T00:30:11;6.80;99.90
46898;DHT22;32646;50.958;6.258;2023-01-09T00:32:38;6.80;99.90
46898;DHT22;32646;50.958;6.258;2023-01-09T00:35:06;6.80;99.90
46898;DHT22;32646;50.958;6.258;2023-01-09T00:37:35;6.80;99.90
46898;DHT22;32646;50.958;6.258;2023-01-09T00:40:01;6.70;99.90
46898;DHT22;32646;50.958;6.258;2023-01-09T00:42:30;6.70;99.90
46898;DHT22;32646;50.958;6.258;2023-01-09T00:45:02;6.70;99.90
46898;DHT22;32646;50.958;6.258;2023-01-09T00:47:37;6.70;99.90
46898;DHT22;32646;50.958;6.258;2023-01-09T00:50:09;6.70;99.90
46898;DHT22;32646;50.958;6.258;2023-01-09T00:52:37;6.70;99.90
46898;DHT22;32646;50.958;6.258;2023-01-09T00:55:05;6.60;99.90
46898;DHT22;32646;50.958;6.258;2023-01-09T00:57:32;6.60;99.90
46898;DHT22;32646;50.958;6.258;2023-01-09T00:59:59;6.60;99.90
46898;DHT22;32646;50.958;6.258;2023-01-09T01:02:26;6.60;99.90
46898;DHT22;32646;50.958;6.258;2023-01-09T01:04:53;6.60;99.90
46898;DHT22;32646;50.958;6.258;2023-01-09T01:07:19;6.50;99.90
46898;DHT22;32646;50.958;6.258;2023-01-09T01:09:46;6.50;99.90
46898;DHT22;32646;50.958;6.258;2023-01-09T01:12:13;6.60;99.90
46898;DHT22;32646;50.958;6.258;2023-01-09T01:14:39;6.50;99.90
46898;DHT22;32646;50.958;6.258;2023-01-09T01:17:06;6.50;99.90
46898;DHT22;32646;50.958;6.258;2023-01-09T01:19:34;6.60;99.90
46898;DHT22;32646;50.958;6.258;2023-01-09T01:22:01;6.50;99.90
46898;DHT22;32646;50.958;6.258;2023-01-09T01:24:28;6.50;99.90
46898;DHT22;32646;50.958;6.258;2023-01-09T01:26:54;6.50;99.90
46898;DHT22;32646;50.958;6.258;2023-01-09T01:29:21;6.60;99.90
46898;DHT22;32646;50.958;6.258;2023-01-09T01:31:47;6.50;99.90
46898;DHT22;32646;50.958;6.258;2023-01-09T01:34:14;6.50;99.90
46898;DHT22;32646;50.958;6.258;2023-01-09T01:36:40;6.50;99.90
46898;DHT22;32646;50.958;6.258;2023-01-09T01:39:07;6.40;99.90
46898;DHT22;32646;50.958;6.258;2023-01-09T01:41:33;6.40;99.90
46898;DHT22;32646;50.958;6.258;2023-01-09T01:44:02;6.50;99.90
46898;DHT22;32646;50.958;6.258;2023-01-09T01:46:31;6.40;99.90
46898;DHT22;32646;50.958;6.258;2023-01-09T01:49:09;6.40;99.90
46898;DHT22;32646;50.958;6.258;2023-01-09T01:51:43;6.50;99.90
46898;DHT22;32646;50.958;6.258;2023-01-09T01:54:15;6.50;99.90
46898;DHT22;32646;50.958;6.258;2023-01-09T01:56:46;6.60;99.90
46898;DHT22;32646;50.958;6.258;2023-01-09T01:59:39;6.80;99.90
46898;DHT22;32646;50.958;6.258;2023-01-09T02:02:07;6.90;99.90
46898;DHT22;32646;50.958;6.258;2023-01-09T02:04:36;6.80;99.90
46898;DHT22;32646;50.958;6.258;2023-01-09T02:07:06;6.70;99.90
46898;DHT22;32646;50.958;6.258;2023-01-09T02:09:34;6.70;99.90
46898;DHT22;32646;50.958;6.258;2023-01-09T02:12:12;6.60;99.90
46898;DHT22;32646;50.958;6.258;2023-01-09T02:14:39;6.60;99.90
46898;DHT22;32646;50.958;6.258;2023-01-09T02:17:27;6.60;99.90
46898;DHT22;32646;50.958;6.258;2023-01-09T02:22:56;6.50;99.90
46898;DHT22;32646;50.958;6.258;2023-01-09T02:33:49;6.80;99.90
46898;DHT22;32646;50.958;6.258;2023-01-09T02:36:36;6.80;99.90
46898;DHT22;32646;50.958;6.258;2023-01-09T02:42:15;6.60;99.90
46898;DHT22;32646;50.958;6.258;2023-01-09T02:44:42;6.50;99.90
46898;DHT22;32646;50.958;6.258;2023-01-09T02:49:47;6.30;99.90
46898;DHT22;32646;50.958;6.258;2023-01-09T02:52:39;6.30;99.90
46898;DHT22;32646;50.958;6.258;2023-01-09T02:55:36;6.20;99.90
46898;DHT22;32646;50.958;6.258;2023-01-09T03:06:59;6.10;99.90
46898;DHT22;32646;50.958;6.258;2023-01-09T03:09:28;6.30;99.90
46898;DHT22;32646;50.958;6.258;2023-01-09T03:12:03;6.20;99.90
46898;DHT22;32646;50.958;6.258;2023-01-09T03:14:32;6.20;99.90
46898;DHT22;32646;50.958;6.258;2023-01-09T03:17:04;6.20;99.90
46898;DHT22;32646;50.958;6.258;2023-01-09T03:19:34;6.10;99.90
46898;DHT22;32646;50.958;6.258;2023-01-09T03:22:01;6.10;99.90
46898;DHT22;32646;50.958;6.258;2023-01-09T03:24:28;6.10;99.90
46898;DHT22;32646;50.958;6.258;2023-01-09T03:26:54;6.10;99.90
46898;DHT22;32646;50.958;6.258;2023-01-09T03:29:21;6.10;99.90
46898;DHT22;32646;50.958;6.258;2023-01-09T03:31:48;6.10;99.90
46898;DHT22;32646;50.958;6.258;2023-01-09T03:34:14;6.10;99.90
46898;DHT22;32646;50.958;6.258;2023-01-09T03:36:41;6.00;99.90
46898;DHT22;32646;50.958;6.258;2023-01-09T03:39:07;6.10;99.90
46898;DHT22;32646;50.958;6.258;2023-01-09T03:41:34;6.00;99.90
46898;DHT22;32646;50.958;6.258;2023-01-09T03:44:00;6.00;99.90
46898;DHT22;32646;50.958;6.258;2023-01-09T03:46:27;6.00;99.90
46898;DHT22;32646;50.958;6.258;2023-01-09T03:48:53;6.00;99.90
46898;DHT22;32646;50.958;6.258;2023-01-09T03:51:20;5.90;99.90
46898;DHT22;32646;50.958;6.258;2023-01-09T03:53:46;6.00;99.90
46898;DHT22;32646;50.958;6.258;2023-01-09T03:56:13;6.00;99.90
46898;DHT22;32646;50.958;6.258;2023-01-09T03:58:40;6.00;99.90
46898;DHT22;32646;50.958;6.258;2023-01-09T04:01:06;6.00;99.90
46898;DHT22;32646;50.958;6.258;2023-01-09T04:03:33;6.10;99.90
46898;DHT22;32646;50.958;6.258;2023-01-09T04:06:00;6.00;99.90
46898;DHT22;32646;50.958;6.258;2023-01-09T04:08:26;6.00;99.90
46898;DHT22;32646;50.958;6.258;2023-01-09T04:10:53;6.10;99.90
46898;DHT22;32646;50.958;6.258;2023-01-09T04:13:19;6.20;99.90
46898;DHT22;32646;50.958;6.258;2023-01-09T04:15:46;6.20;99.90
46898;DHT22;32646;50.958;6.258;2023-01-09T04:18:12;6.30;99.90
46898;DHT22;32646;50.958;6.258;2023-01-09T04:20:39;6.30;99.90
46898;DHT22;32646;50.958;6.258;2023-01-09T04:23:05;6.30;99.90
46898;DHT22;32646;50.958;6.258;2023-01-09T04:25:32;6.40;99.90
46898;DHT22;32646;50.958;6.258;2023-01-09T04:27:59;6.40;99.90
46898;DHT22;32646;50.958;6.258;2023-01-09T04:30:26;6.40;99.90
46898;DHT22;32646;50.958;6.258;2023-01-09T04:32:52;6.50;99.90
46898;DHT22;32646;50.958;6.258;2023-01-09T04:35:19;6.50;99.90
46898;DHT22;32646;50.958;6.258;2023-01-09T04:37:46;6.60;99.90
46898;DHT22;32646;50.958;6.258;2023-01-09T04:40:12;6.70;99.90
46898;DHT22;32646;50.958;6.258;2023-01-09T04:42:39;6.70;99.90
46898;DHT22;32646;50.958;6.258;2023-01-09T04:45:07;6.70;99.90
46898;DHT22;32646;50.958;6.258;2023-01-09T04:47:35;6.70;99.90
46898;DHT22;32646;50.958;6.258;2023-01-09T04:50:01;6.80;99.90
46898;DHT22;32646;50.958;6.258;2023-01-09T04:52:29;6.80;99.90
46898;DHT22;32646;50.958;6.258;2023-01-09T04:54:55;6.80;99.90
46898;DHT22;32646;50.958;6.258;2023-01-09T04:57:22;6.90;99.90
46898;DHT22;32646;50.958;6.258;2023-01-09T04:59:48;6.90;99.90
46898;DHT22;32646;50.958;6.258;2023-01-09T05:02:17;6.90;99.90
46898;DHT22;32646;50.958;6.258;2023-01-09T05:04:43;6.90;99.90
46898;DHT22;32646;50.958;6.258;2023-01-09T05:07:10;6.90;99.90
46898;DHT22;32646;50.958;6.258;2023-01-09T05:09:36;6.90;99.90
46898;DHT22;32646;50.958;6.258;2023-01-09T05:12:03;6.90;99.90
46898;DHT22;32646;50.958;6.258;2023-01-09T05:14:29;7.00;99.90
46898;DHT22;32646;50.958;6.258;2023-01-09T05:16:56;7.00;99.90
46898;DHT22;32646;50.958;6.258;2023-01-09T05:19:23;7.00;99.90
46898;DHT22;32646;50.958;6.258;2023-01-09T05:21:49;7.00;99.90
46898;DHT22;32646;50.958;6.258;2023-01-09T05:24:16;7.00;99.90
46898;DHT22;32646;50.958;6.258;2023-01-09T05:26:42;7.00;99.90
46898;DHT22;32646;50.958;6.258;2023-01-09T05:29:09;7.00;99.90
46898;DHT22;32646;50.958;6.258;2023-01-09T05:31:35;7.10;99.90
46898;DHT22;32646;50.958;6.258;2023-01-09T05:34:02;7.00;99.90
46898;DHT22;32646;50.958;6.258;2023-01-09T05:36:29;7.00;99.90
46898;DHT22;32646;50.958;6.258;2023-01-09T05:38:55;7.10;99.90
46898;DHT22;32646;50.958;6.258;2023-01-09T05:41:22;7.10;99.90
46898;DHT22;32646;50.958;6.258;2023-01-09T05:43:49;7.10;99.90
46898;DHT22;32646;50.958;6.258;2023-01-09T05:46:16;7.20;99.90
46898;DHT22;32646;50.958;6.258;2023-01-09T05:48:42;7.20;99.90
46898;DHT22;32646;50.958;6.258;2023-01-09T05:51:09;7.20;99.90
46898;DHT22;32646;50.958;6.258;2023-01-09T05:53:36;7.20;99.90
46898;DHT22;32646;50.958;6.258;2023-01-09T05:56:03;7.20;99.90
46898;DHT22;32646;50.958;6.258;2023-01-09T05:58:29;7.30;99.90
46898;DHT22;32646;50.958;6.258;2023-01-09T06:00:57;7.20;99.90
46898;DHT22;32646;50.958;6.258;2023-01-09T06:03:23;7.20;99.90
46898;DHT22;32646;50.958;6.258;2023-01-09T06:05:50;7.10;99.90
46898;DHT22;32646;50.958;6.258;2023-01-09T06:08:17;7.20;99.90
46898;DHT22;32646;50.958;6.258;2023-01-09T06:10:44;7.10;99.90
46898;DHT22;32646;50.958;6.258;2023-01-09T06:13:11;7.20;99.90
46898;DHT22;32646;50.958;6.258;2023-01-09T06:15:38;7.30;99.90
46898;DHT22;32646;50.958;6.258;2023-01-09T06:18:04;7.30;99.90
46898;DHT22;32646;50.958;6.258;2023-01-09T06:20:31;7.30;99.90
46898;DHT22;32646;50.958;6.258;2023-01-09T06:22:58;7.30;99.90
46898;DHT22;32646;50.958;6.258;2023-01-09T06:25:24;7.30;99.90
46898;DHT22;32646;50.958;6.258;2023-01-09T06:27:51;7.40;99.90
46898;DHT22;32646;50.958;6.258;2023-01-09T06:30:18;7.30;99.90
46898;DHT22;32646;50.958;6.258;2023-01-09T06:32:49;7.40;99.90
46898;DHT22;32646;50.958;6.258;2023-01-09T06:35:16;7.40;99.90
46898;DHT22;32646;50.958;6.258;2023-01-09T06:37:43;7.50;99.90
46898;DHT22;32646;50.958;6.258;2023-01-09T06:40:10;7.50;99.90
46898;DHT22;32646;50.958;6.258;2023-01-09T06:42:36;7.50;99.90
46898;DHT22;32646;50.958;6.258;2023-01-09T06:45:03;7.50;99.90
46898;DHT22;32646;50.958;6.258;2023-01-09T06:47:30;7.50;99.90
46898;DHT22;32646;50.958;6.258;2023-01-09T06:49:56;7.50;99.90
46898;DHT22;32646;50.958;6.258;2023-01-09T06:52:23;7.50;99.90
46898;DHT22;32646;50.958;6.258;2023-01-09T06:54:49;7.50;99.90
46898;DHT22;32646;50.958;6.258;2023-01-09T06:57:16;7.50;99.90
46898;DHT22;32646;50.958;6.258;2023-01-09T06:59:42;7.50;99.90
46898;DHT22;32646;50.958;6.258;2023-01-09T07:02:20;7.60;99.90
46898;DHT22;32646;50.958;6.258;2023-01-09T07:04:47;7.50;99.90
46898;DHT22;32646;50.958;6.258;2023-01-09T07:07:14;7.60;99.90
46898;DHT22;32646;50.958;6.258;2023-01-09T07:09:40;7.60;99.90
46898;DHT22;32646;50.958;6.258;2023-01-09T07:12:07;7.60;99.90
46898;DHT22;32646;50.958;6.258;2023-01-09T07:14:33;7.60;99.90
46898;DHT22;32646;50.958;6.258;2023-01-09T07:17:00;7.70;99.90
46898;DHT22;32646;50.958;6.258;2023-01-09T07:19:26;7.60;99.90
46898;DHT22;32646;50.958;6.258;2023-01-09T07:21:53;7.70;99.90
46898;DHT22;32646;50.958;6.258;2023-01-09T07:24:19;7.60;99.90
46898;DHT22;32646;50.958;6.258;2023-01-09T07:26:46;7.70;99.90
46898;DHT22;32646;50.958;6.258;2023-01-09T07:29:13;7.70;99.90
46898;DHT22;32646;50.958;6.258;2023-01-09T07:31:39;7.60;99.90
46898;DHT22;32646;50.958;6.258;2023-01-09T07:34:06;7.60;99.90
46898;DHT22;32646;50.958;6.258;2023-01-09T07:36:32;7.60;99.90
46898;DHT22;32646;50.958;6.258;2023-01-09T07:38:59;7.60;99.90
46898;DHT22;32646;50.958;6.258;2023-01-09T07:41:25;7.60;99.90
46898;DHT22;32646;50.958;6.258;2023-01-09T07:43:52;7.60;99.90
46898;DHT22;32646;50.958;6.258;2023-01-09T07:46:18;7.60;99.90
46898;DHT22;32646;50.958;6.258;2023-01-09T07:48:45;7.60;99.90
46898;DHT22;32646;50.958;6.258;2023-01-09T07:51:11;7.60;99.90
46898;DHT22;32646;50.958;6.258;2023-01-09T07:53:38;7.60;99.90
46898;DHT22;32646;50.958;6.258;2023-01-09T07:56:04;7.70;99.90
46898;DHT22;32646;50.958;6.258;2023-01-09T07:58:31;7.80;99.90
46898;DHT22;32646;50.958;6.258;2023-01-09T08:00:57;7.70;99.90
46898;DHT22;32646;50.958;6.258;2023-01-09T08:03:24;7.70;99.90
46898;DHT22;32646;50.958;6.258;2023-01-09T08:05:51;7.70;99.90
46898;DHT22;32646;50.958;6.258;2023-01-09T08:08:17;7.80;99.90
46898;DHT22;32646;50.958;6.258;2023-01-09T08:10:44;7.80;99.90
46898;DHT22;32646;50.958;6.258;2023-01-09T08:13:10;7.90;99.90
46898;DHT22;32646;50.958;6.258;2023-01-09T08:15:37;7.90;99.90
46898;DHT22;32646;50.958;6.258;2023-01-09T08:18:03;7.90;99.90
46898;DHT22;32646;50.958;6.258;2023-01-09T08:20:34;8.00;99.90
46898;DHT22;32646;50.958;6.258;2023-01-09T08:23:00;8.00;99.90
46898;DHT22;32646;50.958;6.258;2023-01-09T08:25:28;8.00;99.90
46898;DHT22;32646;50.958;6.258;2023-01-09T08:27:54;8.00;99.90
46898;DHT22;32646;50.958;6.258;2023-01-09T08:30:21;8.00;99.90
46898;DHT22;32646;50.958;6.258;2023-01-09T08:32:52;8.00;99.90
46898;DHT22;32646;50.958;6.258;2023-01-09T08:35:19;8.10;99.90
46898;DHT22;32646;50.958;6.258;2023-01-09T08:37:47;8.10;99.90
46898;DHT22;32646;50.958;6.258;2023-01-09T08:40:15;8.00;99.90
46898;DHT22;32646;50.958;6.258;2023-01-09T08:42:41;8.10;99.90
46898;DHT22;32646;50.958;6.258;2023-01-09T08:45:10;8.00;99.90
46898;DHT22;32646;50.958;6.258;2023-01-09T08:47:37;8.00;99.90
46898;DHT22;32646;50.958;6.258;2023-01-09T08:50:04;8.00;99.90
46898;DHT22;32646;50.958;6.258;2023-01-09T08:52:31;8.00;99.90
46898;DHT22;32646;50.958;6.258;2023-01-09T08:54:57;8.00;99.90
46898;DHT22;32646;50.958;6.258;2023-01-09T08:57:24;8.00;99.90
46898;DHT22;32646;50.958;6.258;2023-01-09T08:59:51;8.00;99.90
46898;DHT22;32646;50.958;6.258;2023-01-09T09:02:17;8.00;99.90
46898;DHT22;32646;50.958;6.258;2023-01-09T09:04:44;8.00;99.90
46898;DHT22;32646;50.958;6.258;2023-01-09T09:07:10;8.00;99.90
46898;DHT22;32646;50.958;6.258;2023-01-09T09:09:37;7.90;99.90
46898;DHT22;32646;50.958;6.258;2023-01-09T09:12:03;7.90;99.90
46898;DHT22;32646;50.958;6.258;2023-01-09T09:14:30;8.00;99.90
46898;DHT22;32646;50.958;6.258;2023-01-09T09:16:57;8.00;99.90
46898;DHT22;32646;50.958;6.258;2023-01-09T09:19:23;8.10;99.90
46898;DHT22;32646;50.958;6.258;2023-01-09T09:21:50;8.10;99.90
46898;DHT22;32646;50.958;6.258;2023-01-09T09:24:16;8.20;99.90
46898;DHT22;32646;50.958;6.258;2023-01-09T09:26:43;8.20;99.90
46898;DHT22;32646;50.958;6.258;2023-01-09T09:29:10;8.20;99.90
46898;DHT22;32646;50.958;6.258;2023-01-09T09:31:37;8.20;99.90
46898;DHT22;32646;50.958;6.258;2023-01-09T09:34:05;8.20;99.90
46898;DHT22;32646;50.958;6.258;2023-01-09T09:36:31;8.20;99.90
46898;DHT22;32646;50.958;6.258;2023-01-09T09:38:58;8.10;99.90
46898;DHT22;32646;50.958;6.258;2023-01-09T09:41:58;8.10;99.90
46898;DHT22;32646;50.958;6.258;2023-01-09T09:44:56;8.10;99.90
46898;DHT22;32646;50.958;6.258;2023-01-09T09:50:07;8.10;99.90
46898;DHT22;32646;50.958;6.258;2023-01-09T09:57:55;8.20;99.90
46898;DHT22;32646;50.958;6.258;2023-01-09T10:00:23;8.20;99.90
46898;DHT22;32646;50.958;6.258;2023-01-09T10:02:57;8.30;99.90
46898;DHT22;32646;50.958;6.258;2023-01-09T10:05:55;8.50;99.90
46898;DHT22;32646;50.958;6.258;2023-01-09T10:11:16;8.60;99.90
46898;DHT22;32646;50.958;6.258;2023-01-09T10:13:44;8.70;99.90
46898;DHT22;32646;50.958;6.258;2023-01-09T10:18:56;8.50;99.90
46898;DHT22;32646;50.958;6.258;2023-01-09T10:27:15;8.40;99.90
46898;DHT22;32646;50.958;6.258;2023-01-09T10:30:16;8.40;99.90
46898;DHT22;32646;50.958;6.258;2023-01-09T10:38:30;8.50;99.90
46898;DHT22;32646;50.958;6.258;2023-01-09T10:41:27;8.60;99.90
46898;DHT22;32646;50.958;6.258;2023-01-09T10:44:04;8.60;99.90
46898;DHT22;32646;50.958;6.258;2023-01-09T10:46:46;8.60;99.90
46898;DHT22;32646;50.958;6.258;2023-01-09T10:49:16;8.60;99.90
46898;DHT22;32646;50.958;6.258;2023-01-09T10:51:46;8.50;99.90
46898;DHT22;32646;50.958;6.258;2023-01-09T10:54:16;8.50;99.90
46898;DHT22;32646;50.958;6.258;2023-01-09T10:57:11;8.50;99.90
46898;DHT22;32646;50.958;6.258;2023-01-09T10:59:39;8.70;99.90
46898;DHT22;32646;50.958;6.258;2023-01-09T11:02:36;9.40;99.90
46898;DHT22;32646;50.958;6.258;2023-01-09T11:05:02;9.90;99.90
46898;DHT22;32646;50.958;6.258;2023-01-09T11:07:36;9.30;99.90
46898;DHT22;32646;50.958;6.258;2023-01-09T11:10:09;9.00;99.90
46898;DHT22;32646;50.958;6.258;2023-01-09T11:12:36;8.90;99.90
46898;DHT22;32646;50.958;6.258;2023-01-09T11:15:17;8.60;99.90
46898;DHT22;32646;50.958;6.258;2023-01-09T11:17:49;8.60;99.90
46898;DHT22;32646;50.958;6.258;2023-01-09T11:20:18;8.60;99.90
46898;DHT22;32646;50.958;6.258;2023-01-09T11:22:50;8.50;99.90
46898;DHT22;32646;50.958;6.258;2023-01-09T11:25:20;8.40;99.90
46898;DHT22;32646;50.958;6.258;2023-01-09T11:28:04;8.30;99.90
46898;DHT22;32646;50.958;6.258;2023-01-09T11:30:36;8.40;99.90
46898;DHT22;32646;50.958;6.258;2023-01-09T11:33:14;8.50;99.90
46898;DHT22;32646;50.958;6.258;2023-01-09T11:35:58;8.80;99.90
46898;DHT22;32646;50.958;6.258;2023-01-09T11:38:26;9.30;99.90
46898;DHT22;32646;50.958;6.258;2023-01-09T11:43:41;8.70;99.90
46898;DHT22;32646;50.958;6.258;2023-01-09T11:46:29;8.60;99.90
46898;DHT22;32646;50.958;6.258;2023-01-09T11:48:57;8.60;99.90
46898;DHT22;32646;50.958;6.258;2023-01-09T11:51:33;8.60;99.90
46898;DHT22;32646;50.958;6.258;2023-01-09T11:54:26;8.50;99.90
46898;DHT22;32646;50.958;6.258;2023-01-09T11:56:54;8.50;99.90
46898;DHT22;32646;50.958;6.258;2023-01-09T11:59:24;8.50;99.90
46898;DHT22;32646;50.958;6.258;2023-01-09T12:02:16;8.40;99.90
46898;DHT22;32646;50.958;6.258;2023-01-09T12:05:11;8.20;99.90
46898;DHT22;32646;50.958;6.258;2023-01-09T12:07:46;8.20;99.90
46898;DHT22;32646;50.958;6.258;2023-01-09T12:10:39;8.20;99.90
46898;DHT22;32646;50.958;6.258;2023-01-09T12:21:34;7.90;99.90
46898;DHT22;32646;50.958;6.258;2023-01-09T12:26:46;8.00;99.90
46898;DHT22;32646;50.958;6.258;2023-01-09T12:29:39;8.20;99.90
46898;DHT22;32646;50.958;6.258;2023-01-09T12:35:28;8.30;99.90
46898;DHT22;32646;50.958;6.258;2023-01-09T12:38:03;8.30;99.90
46898;DHT22;32646;50.958;6.258;2023-01-09T12:51:55;8.20;99.90
46898;DHT22;32646;50.958;6.258;2023-01-09T12:57:26;8.10;99.90
46898;DHT22;32646;50.958;6.258;2023-01-09T13:00:20;7.90;99.90
46898;DHT22;32646;50.958;6.258;2023-01-09T13:05:51;7.90;99.90
46898;DHT22;32646;50.958;6.258;2023-01-09T13:08:30;7.70;99.90
46898;DHT22;32646;50.958;6.258;2023-01-09T13:11:07;7.60;99.90
46898;DHT22;32646;50.958;6.258;2023-01-09T13:13:53;7.60;99.90
46898;DHT22;32646;50.958;6.258;2023-01-09T13:16:34;7.60;99.90
46898;DHT22;32646;50.958;6.258;2023-01-09T13:21:41;7.60;99.90
46898;DHT22;32646;50.958;6.258;2023-01-09T13:24:26;7.60;99.90
46898;DHT22;32646;50.958;6.258;2023-01-09T13:27:05;7.60;99.90
46898;DHT22;32646;50.958;6.258;2023-01-09T13:29:36;7.70;99.90
46898;DHT22;32646;50.958;6.258;2023-01-09T13:34:54;7.70;99.90
46898;DHT22;32646;50.958;6.258;2023-01-09T13:37:25;7.80;99.90
46898;DHT22;32646;50.958;6.258;2023-01-09T13:40:33;7.70;99.90
46898;DHT22;32646;50.958;6.258;2023-01-09T13:43:01;7.70;99.90
46898;DHT22;32646;50.958;6.258;2023-01-09T13:45:31;7.70;99.90
46898;DHT22;32646;50.958;6.258;2023-01-09T13:50:40;7.70;99.90
46898;DHT22;32646;50.958;6.258;2023-01-09T14:01:02;7.70;99.90
46898;DHT22;32646;50.958;6.258;2023-01-09T14:03:36;7.70;99.90
46898;DHT22;32646;50.958;6.258;2023-01-09T14:06:14;7.70;99.90
46898;DHT22;32646;50.958;6.258;2023-01-09T14:08:42;7.60;99.90
46898;DHT22;32646;50.958;6.258;2023-01-09T14:11:17;7.60;99.90
46898;DHT22;32646;50.958;6.258;2023-01-09T14:13:45;7.60;99.90
46898;DHT22;32646;50.958;6.258;2023-01-09T14:16:23;7.60;99.90
46898;DHT22;32646;50.958;6.258;2023-01-09T14:19:07;7.60;99.90
46898;DHT22;32646;50.958;6.258;2023-01-09T14:21:47;7.60;99.90
46898;DHT22;32646;50.958;6.258;2023-01-09T14:24:21;7.60;99.90
46898;DHT22;32646;50.958;6.258;2023-01-09T14:26:54;7.60;99.90
46898;DHT22;32646;50.958;6.258;2023-01-09T14:29:37;7.50;99.90
46898;DHT22;32646;50.958;6.258;2023-01-09T14:35:02;7.50;99.90
46898;DHT22;32646;50.958;6.258;2023-01-09T14:37:35;7.50;99.90
46898;DHT22;32646;50.958;6.258;2023-01-09T14:40:15;7.40;99.90
46898;DHT22;32646;50.958;6.258;2023-01-09T14:42:45;7.40;99.90
46898;DHT22;32646;50.958;6.258;2023-01-09T14:45:17;7.30;99.90
46898;DHT22;32646;50.958;6.258;2023-01-09T14:47:49;7.40;99.90
46898;DHT22;32646;50.958;6.258;2023-01-09T14:53:30;7.30;99.90
46898;DHT22;32646;50.958;6.258;2023-01-09T14:56:03;7.30;99.90
46898;DHT22;32646;50.958;6.258;2023-01-09T14:58:33;7.20;99.90
46898;DHT22;32646;50.958;6.258;2023-01-09T15:03:37;7.10;99.90
46898;DHT22;32646;50.958;6.258;2023-01-09T15:06:05;7.10;99.90
46898;DHT22;32646;50.958;6.258;2023-01-09T15:08:35;7.10;99.90
46898;DHT22;32646;50.958;6.258;2023-01-09T15:11:02;7.10;99.90
46898;DHT22;32646;50.958;6.258;2023-01-09T15:13:35;7.10;99.90
46898;DHT22;32646;50.958;6.258;2023-01-09T15:16:06;7.00;99.90
46898;DHT22;32646;50.958;6.258;2023-01-09T15:18:41;7.00;99.90
46898;DHT22;32646;50.958;6.258;2023-01-09T15:21:19;7.00;99.90
46898;DHT22;32646;50.958;6.258;2023-01-09T15:23:46;7.00;99.90
46898;DHT22;32646;50.958;6.258;2023-01-09T15:26:23;7.00;99.90
46898;DHT22;32646;50.958;6.258;2023-01-09T15:28:52;7.00;99.90
46898;DHT22;32646;50.958;6.258;2023-01-09T15:31:22;7.00;99.90
46898;DHT22;32646;50.958;6.258;2023-01-09T15:33:49;7.00;99.90
46898;DHT22;32646;50.958;6.258;2023-01-09T15:36:24;6.90;99.90
46898;DHT22;32646;50.958;6.258;2023-01-09T15:38:52;6.90;99.90
46898;DHT22;32646;50.958;6.258;2023-01-09T15:41:29;6.90;99.90
46898;DHT22;32646;50.958;6.258;2023-01-09T15:43:55;6.90;99.90
46898;DHT22;32646;50.958;6.258;2023-01-09T15:46:23;6.90;99.90
46898;DHT22;32646;50.958;6.258;2023-01-09T15:48:52;6.80;99.90
46898;DHT22;32646;50.958;6.258;2023-01-09T15:51:19;6.80;99.90
46898;DHT22;32646;50.958;6.258;2023-01-09T15:53:47;6.80;99.90
46898;DHT22;32646;50.958;6.258;2023-01-09T15:56:16;6.80;99.90
46898;DHT22;32646;50.958;6.258;2023-01-09T15:58:45;6.90;99.90
46898;DHT22;32646;50.958;6.258;2023-01-09T16:03:56;6.90;99.90
46898;DHT22;32646;50.958;6.258;2023-01-09T16:06:25;6.90;99.90
46898;DHT22;32646;50.958;6.258;2023-01-09T16:08:53;7.00;99.90
46898;DHT22;32646;50.958;6.258;2023-01-09T16:11:40;6.90;99.90
46898;DHT22;32646;50.958;6.258;2023-01-09T16:14:19;6.80;99.90
46898;DHT22;32646;50.958;6.258;2023-01-09T16:16:49;6.80;99.90
46898;DHT22;32646;50.958;6.258;2023-01-09T16:22:25;6.70;99.90
46898;DHT22;32646;50.958;6.258;2023-01-09T16:24:53;6.60;99.90
46898;DHT22;32646;50.958;6.258;2023-01-09T16:27:28;6.40;99.90
46898;DHT22;32646;50.958;6.258;2023-01-09T16:32:44;6.50;99.90
46898;DHT22;32646;50.958;6.258;2023-01-09T16:35:18;6.60;99.90
46898;DHT22;32646;50.958;6.258;2023-01-09T16:37:45;6.60;99.90
46898;DHT22;32646;50.958;6.258;2023-01-09T16:42:46;6.60;99.90
46898;DHT22;32646;50.958;6.258;2023-01-09T16:45:13;6.50;99.90
46898;DHT22;32646;50.958;6.258;2023-01-09T16:47:39;6.50;99.90
46898;DHT22;32646;50.958;6.258;2023-01-09T16:50:09;6.50;99.90
46898;DHT22;32646;50.958;6.258;2023-01-09T16:52:36;6.70;99.90
46898;DHT22;32646;50.958;6.258;2023-01-09T16:55:03;6.70;99.90
46898;DHT22;32646;50.958;6.258;2023-01-09T16:57:30;6.70;99.90
46898;DHT22;32646;50.958;6.258;2023-01-09T16:59:57;6.80;99.90
46898;DHT22;32646;50.958;6.258;2023-01-09T17:02:25;6.70;99.90
46898;DHT22;32646;50.958;6.258;2023-01-09T17:04:52;6.70;99.90
46898;DHT22;32646;50.958;6.258;2023-01-09T17:07:19;6.60;99.90
46898;DHT22;32646;50.958;6.258;2023-01-09T17:09:47;6.60;99.90
46898;DHT22;32646;50.958;6.258;2023-01-09T17:12:19;6.60;99.90
46898;DHT22;32646;50.958;6.258;2023-01-09T17:14:47;6.60;99.90
46898;DHT22;32646;50.958;6.258;2023-01-09T17:17:17;6.60;99.90
46898;DHT22;32646;50.958;6.258;2023-01-09T17:19:44;6.60;99.90
46898;DHT22;32646;50.958;6.258;2023-01-09T17:22:10;6.70;99.90
46898;DHT22;32646;50.958;6.258;2023-01-09T17:24:37;6.70;99.90
46898;DHT22;32646;50.958;6.258;2023-01-09T17:27:04;6.70;99.90
46898;DHT22;32646;50.958;6.258;2023-01-09T17:29:32;6.70;99.90
46898;DHT22;32646;50.958;6.258;2023-01-09T17:31:59;6.70;99.90
46898;DHT22;32646;50.958;6.258;2023-01-09T17:34:26;6.60;99.90
46898;DHT22;32646;50.958;6.258;2023-01-09T17:36:53;6.50;99.90
46898;DHT22;32646;50.958;6.258;2023-01-09T17:39:20;6.50;99.90
46898;DHT22;32646;50.958;6.258;2023-01-09T17:41:47;6.50;99.90
46898;DHT22;32646;50.958;6.258;2023-01-09T17:44:14;6.60;99.90
46898;DHT22;32646;50.958;6.258;2023-01-09T17:46:42;6.60;99.90
46898;DHT22;32646;50.958;6.258;2023-01-09T17:49:15;6.70;99.90
46898;DHT22;32646;50.958;6.258;2023-01-09T17:51:42;6.60;99.90
46898;DHT22;32646;50.958;6.258;2023-01-09T17:54:08;6.70;99.90
46898;DHT22;32646;50.958;6.258;2023-01-09T17:56:37;6.70;99.90
46898;DHT22;32646;50.958;6.258;2023-01-09T17:59:04;6.70;99.90
46898;DHT22;32646;50.958;6.258;2023-01-09T18:01:31;6.70;99.90
46898;DHT22;32646;50.958;6.258;2023-01-09T18:03:57;6.60;99.90